Time;durP1;ratioP1;P1;durP2;ratioP2;P2;SDS_P1;SDS_P2;PMS_P1;PMS_P2;Temp;Humidity;BMP_temperature;BMP_pressure;BME280_temperature;BME280_humidity;BME280_pressure;Samples;Min_cycle;Max_cycle;Signal;HPM_P1;HPM_P2
2022/01/08 00:00:59;;;;;;;73.88;24.98;;;;;;;-4.90;58.42;98450.28;5109280;28;20030;-66
2022/01/08 00:03:24;;;;;;;67.13;23.70;;;;;;;-4.94;58.69;98442.63;5109857;28;20055;-67
2022/01/08 00:05:50;;;;;;;54.28;20.50;;;;;;;-4.93;59.32;98448.78;5110030;28;20055;-66
2022/01/08 00:08:15;;;;;;;50.58;18.30;;;;;;;-4.93;59.00;98448.78;5109750;28;20101;-66
2022/01/08 00:10:41;;;;;;;44.05;16.35;;;;;;;-4.95;58.80;98449.00;5109853;28;20019;-67
2022/01/08 00:13:07;;;;;;;45.17;16.95;;;;;;;-4.95;59.05;98448.16;5109404;28;20054;-67
2022/01/08 00:15:34;;;;;;;39.95;15.35;;;;;;;-4.93;59.63;98444.28;5091395;28;20424;-67
2022/01/08 00:17:59;;;;;;;41.58;17.58;;;;;;;-4.92;59.31;98447.78;5109785;28;20107;-67
2022/01/08 00:20:26;;;;;;;46.65;17.77;;;;;;;-4.90;59.12;98445.72;5110042;28;20114;-67
2022/01/08 00:22:53;;;;;;;45.85;18.80;;;;;;;-4.88;59.64;98438.34;5109763;28;20028;-67
2022/01/08 00:25:19;;;;;;;48.45;18.65;;;;;;;-4.89;59.32;98442.03;5109532;28;20023;-67
2022/01/08 00:27:45;;;;;;;52.50;18.98;;;;;;;-4.95;59.37;98442.81;5109724;28;20332;-66
2022/01/08 00:30:11;;;;;;;59.13;20.25;;;;;;;-5.03;59.32;98445.63;5110083;28;20072;-67
2022/01/08 00:32:36;;;;;;;54.33;20.50;;;;;;;-5.08;59.25;98448.91;5091618;28;20478;-67
2022/01/08 00:35:02;;;;;;;48.35;18.40;;;;;;;-5.08;59.31;98440.88;5108936;28;20032;-67
2022/01/08 00:37:28;;;;;;;50.03;17.98;;;;;;;-5.06;59.35;98446.88;5109374;28;20047;-67
2022/01/08 00:39:53;;;;;;;51.75;18.67;;;;;;;-5.09;59.55;98439.22;5110041;28;20016;-67
2022/01/08 00:42:19;;;;;;;57.08;20.77;;;;;;;-5.12;59.25;98442.28;5109134;28;20031;-67
2022/01/08 00:44:44;;;;;;;59.13;21.23;;;;;;;-5.10;59.03;98435.75;5112437;28;20316;-67
2022/01/08 00:47:09;;;;;;;62.30;22.95;;;;;;;-5.03;59.63;98440.28;5095078;28;20072;-67
2022/01/08 00:49:36;;;;;;;59.83;23.52;;;;;;;-5.03;59.51;98442.97;5113963;28;20027;-67
2022/01/08 00:52:02;;;;;;;64.15;23.48;;;;;;;-5.06;59.33;98433.50;5095137;28;20020;-67
2022/01/08 00:54:28;;;;;;;60.30;21.35;;;;;;;-5.13;59.58;98428.13;5094938;28;20027;-66
2022/01/08 00:56:53;;;;;;;69.82;24.35;;;;;;;-5.12;59.79;98429.75;5113472;28;20015;-67
2022/01/08 00:59:19;;;;;;;68.80;23.88;;;;;;;-5.12;59.83;98428.94;5113526;28;20023;-66
2022/01/08 01:01:44;;;;;;;67.03;23.33;;;;;;;-5.12;59.46;98421.75;5113237;28;20020;-67
2022/01/08 01:04:10;;;;;;;62.47;21.17;;;;;;;-5.15;59.45;98413.25;5113298;28;20036;-66
2022/01/08 01:06:35;;;;;;;55.78;22.88;;;;;;;-5.19;59.24;98414.69;5113488;28;20053;-66
2022/01/08 01:09:00;;;;;;;57.05;20.75;;;;;;;-5.23;59.08;98414.25;5114227;28;20381;-67
2022/01/08 01:11:26;;;;;;;68.93;22.10;;;;;;;-5.29;59.41;98412.34;5113979;28;20024;-67
2022/01/08 01:13:51;;;;;;;58.65;19.80;;;;;;;-5.30;59.42;98398.19;5112893;28;20016;-66
2022/01/08 01:16:18;;;;;;;60.15;20.92;;;;;;;-5.30;59.52;98400.84;5113199;28;20020;-66
2022/01/08 01:18:44;;;;;;;50.83;16.67;;;;;;;-5.31;59.65;98391.19;5111732;28;20087;-66
2022/01/08 01:21:09;;;;;;;47.75;18.83;;;;;;;-5.29;59.75;98394.44;5114015;28;20157;-66
2022/01/08 01:23:39;;;;;;;49.05;19.20;;;;;;;-5.30;59.91;98383.97;5114389;28;20023;-65
2022/01/08 01:26:09;;;;;;;46.13;19.77;;;;;;;-5.37;59.36;98386.59;5114425;28;20501;-65
2022/01/08 01:28:45;;;;;;;46.67;19.65;;;;;;;-5.40;59.62;98385.13;5113270;28;20028;-65
2022/01/08 01:42:09;;;;;;;63.28;20.98;;;;;;;-5.34;60.16;98374.69;5110975;28;20638;-65
2022/01/08 01:47:30;;;;;;;76.18;25.38;;;;;;;-5.32;60.43;98367.28;5112118;28;20092;-65
2022/01/08 01:49:55;;;;;;;65.53;22.55;;;;;;;-5.34;60.03;98367.50;5112978;28;20027;-65
2022/01/08 01:52:21;;;;;;;67.70;25.27;;;;;;;-5.37;60.22;98370.56;5112560;28;20119;-65
2022/01/08 01:54:46;;;;;;;53.55;22.10;;;;;;;-5.38;60.16;98368.91;5111237;28;20077;-65
2022/01/08 01:57:13;;;;;;;51.72;21.88;;;;;;;-5.36;60.00;98363.34;5112555;28;20110;-66
2022/01/08 01:59:40;;;;;;;66.82;24.25;;;;;;;-5.34;60.26;98361.31;5112925;28;20027;-66
2022/01/08 02:02:06;;;;;;;75.47;26.30;;;;;;;-5.38;59.88;98353.69;5093972;28;20122;-65
2022/01/08 02:04:31;;;;;;;66.47;23.27;;;;;;;-5.44;59.72;98364.34;5112516;28;20126;-67
2022/01/08 02:06:57;;;;;;;58.83;22.05;;;;;;;-5.55;60.09;98365.72;5112249;28;20023;-65
2022/01/08 02:09:22;;;;;;;68.30;25.30;;;;;;;-5.71;59.89;98356.13;5093977;28;20032;-65
2022/01/08 02:12:05;;;;;;;61.40;23.23;;;;;;;-5.75;60.20;98344.19;5112831;28;20126;-65
2022/01/08 02:14:34;;;;;;;55.10;21.65;;;;;;;-5.69;60.23;98346.91;5110434;28;20024;-65
2022/01/08 02:17:00;;;;;;;48.17;19.00;;;;;;;-5.65;60.45;98333.16;5112099;28;20042;-65
2022/01/08 02:19:26;;;;;;;49.00;18.90;;;;;;;-5.59;60.74;98341.22;5091757;28;20024;-65
2022/01/08 02:21:54;;;;;;;55.97;22.20;;;;;;;-5.56;60.46;98340.81;5112346;28;20483;-66
2022/01/08 02:24:21;;;;;;;56.17;21.88;;;;;;;-5.50;60.45;98346.41;5112207;28;20487;-65
2022/01/08 02:26:47;;;;;;;56.35;22.35;;;;;;;-5.49;60.27;98340.03;5093544;28;20019;-65
2022/01/08 02:29:14;;;;;;;50.50;20.88;;;;;;;-5.50;60.34;98335.72;5112480;28;20475;-66
2022/01/08 02:31:40;;;;;;;53.55;18.42;;;;;;;-5.57;60.38;98331.16;5112259;28;20019;-66
2022/01/08 02:34:06;;;;;;;48.25;18.58;;;;;;;-5.63;60.32;98334.59;5110167;28;20499;-66
2022/01/08 02:36:33;;;;;;;45.88;17.90;;;;;;;-5.61;60.82;98331.75;5093819;28;20016;-67
2022/01/08 02:38:59;;;;;;;45.45;16.92;;;;;;;-5.60;60.52;98325.38;5093745;28;20016;-66
2022/01/08 02:41:26;;;;;;;40.45;16.45;;;;;;;-5.60;61.09;98317.38;5112538;28;20020;-66
2022/01/08 02:43:53;;;;;;;37.47;15.27;;;;;;;-5.62;60.72;98322.06;5111690;28;20024;-66
2022/01/08 02:46:22;;;;;;;38.63;15.77;;;;;;;-5.64;60.51;98314.25;5111982;28;20031;-63
2022/01/08 02:48:48;;;;;;;43.55;16.05;;;;;;;-5.65;60.90;98314.44;5111087;28;20023;-64
2022/01/08 02:51:13;;;;;;;41.00;15.77;;;;;;;-5.64;60.88;98310.75;5112149;28;20382;-64
2022/01/08 02:53:39;;;;;;;43.58;16.95;;;;;;;-5.64;61.04;98308.91;5111267;28;20023;-64
2022/01/08 02:56:06;;;;;;;46.45;17.10;;;;;;;-5.62;60.66;98311.38;5111989;28;20065;-64
2022/01/08 02:58:32;;;;;;;45.22;17.23;;;;;;;-5.60;60.93;98312.84;5111489;28;20425;-64
2022/01/08 03:00:58;;;;;;;43.10;16.00;;;;;;;-5.59;60.79;98306.47;5111774;28;20024;-64
2022/01/08 03:03:24;;;;;;;40.83;17.17;;;;;;;-5.57;60.48;98300.94;5110885;28;20086;-64
2022/01/08 03:05:50;;;;;;;39.65;15.18;;;;;;;-5.59;61.19;98305.66;5111163;28;20024;-64
2022/01/08 03:08:16;;;;;;;46.80;16.90;;;;;;;-5.61;60.92;98297.81;5111254;28;20039;-64
2022/01/08 03:10:41;;;;;;;46.10;17.33;;;;;;;-5.66;60.89;98297.56;5112123;28;20379;-65
2022/01/08 03:13:07;;;;;;;37.40;13.73;;;;;;;-5.70;60.77;98296.31;5111332;28;20024;-65
2022/01/08 03:15:36;;;;;;;47.85;16.58;;;;;;;-5.75;60.89;98290.75;5092911;28;20045;-64
2022/01/08 03:18:06;;;;;;;39.15;15.98;;;;;;;-5.72;61.58;98285.84;5111533;28;20035;-64
2022/01/08 03:20:32;;;;;;;43.47;16.38;;;;;;;-5.75;61.25;98286.22;5090972;28;20020;-65
2022/01/08 03:23:03;;;;;;;42.58;18.48;;;;;;;-5.78;61.57;98281.28;5111308;28;20031;-65
2022/01/08 03:25:32;;;;;;;43.47;17.23;;;;;;;-5.75;61.75;98272.88;5111191;28;20365;-65
2022/01/08 03:27:57;;;;;;;37.63;16.20;;;;;;;-5.71;61.39;98271.47;5111363;28;20103;-65
2022/01/08 03:30:24;;;;;;;40.33;15.70;;;;;;;-5.65;61.65;98277.03;5111008;28;20439;-64
2022/01/08 03:32:51;;;;;;;38.53;16.13;;;;;;;-5.65;61.67;98274.38;5110422;28;20135;-64
2022/01/08 03:35:16;;;;;;;36.50;14.30;;;;;;;-5.69;61.73;98266.75;5110942;28;20034;-64
2022/01/08 03:37:42;;;;;;;42.97;16.08;;;;;;;-5.77;61.79;98264.22;5110747;28;20031;-65
2022/01/08 03:40:08;;;;;;;48.95;18.00;;;;;;;-5.85;61.49;98257.19;5111241;28;20030;-64
2022/01/08 03:42:33;;;;;;;44.83;16.85;;;;;;;-5.84;61.66;98266.00;5110728;28;20031;-64
2022/01/08 03:44:59;;;;;;;44.47;17.42;;;;;;;-5.83;61.67;98262.31;5110592;28;20042;-65
2022/01/08 03:49:53;;;;;;;42.03;16.20;;;;;;;-5.75;61.71;98256.84;5110948;28;20100;-65
2022/01/08 03:52:19;;;;;;;54.13;18.67;;;;;;;-5.70;62.61;98251.72;5110772;28;20042;-65
2022/01/08 03:54:44;;;;;;;49.95;16.90;;;;;;;-5.66;62.50;98251.34;5110329;28;20072;-65
2022/01/08 03:57:10;;;;;;;41.13;16.40;;;;;;;-5.65;61.96;98245.78;5110613;28;20533;-65
2022/01/08 03:59:35;;;;;;;37.08;15.27;;;;;;;-5.61;62.43;98248.91;5110396;28;20027;-65
2022/01/08 04:02:01;;;;;;;29.83;13.80;;;;;;;-5.58;62.39;98254.69;5110381;28;20511;-65
2022/01/08 04:04:26;;;;;;;32.75;13.45;;;;;;;-5.62;62.32;98255.28;5110201;28;20032;-64
2022/01/08 04:06:52;;;;;;;30.23;12.50;;;;;;;-5.69;62.39;98256.06;5092142;28;20403;-65
2022/01/08 04:09:18;;;;;;;31.00;13.68;;;;;;;-5.66;62.53;98241.47;5070364;28;20079;-65
2022/01/08 04:11:44;;;;;;;36.53;15.45;;;;;;;-5.66;62.69;98241.47;5069875;28;20078;-64
2022/01/08 04:14:10;;;;;;;31.95;13.13;;;;;;;-5.63;62.91;98242.94;5069746;28;20032;-64
2022/01/08 04:16:41;;;;;;;36.22;15.50;;;;;;;-5.62;62.64;98245.41;5069588;28;20028;-64
2022/01/08 04:19:06;;;;;;;34.47;14.23;;;;;;;-5.57;62.65;98239.47;5068363;28;20020;-65
2022/01/08 04:24:02;;;;;;;34.90;16.92;;;;;;;-5.46;63.13;98232.75;5069454;28;20043;-65
2022/01/08 04:26:27;;;;;;;42.60;18.45;;;;;;;-5.42;63.05;98234.00;5069615;28;20025;-64
2022/01/08 04:28:54;;;;;;;47.90;19.85;;;;;;;-5.38;63.17;98237.94;5068980;28;20074;-64
2022/01/08 04:31:20;;;;;;;51.50;21.42;;;;;;;-5.36;63.46;98233.22;5069155;28;20488;-65
2022/01/08 04:33:45;;;;;;;54.30;21.70;;;;;;;-5.29;62.73;98222.53;5068892;28;20035;-65
2022/01/08 04:36:11;;;;;;;63.33;24.05;;;;;;;-5.23;63.34;98225.22;5067990;28;20012;-65
2022/01/08 04:38:37;;;;;;;55.55;19.30;;;;;;;-5.13;63.67;98216.84;5069111;28;20020;-65
2022/01/08 04:41:02;;;;;;;52.95;20.40;;;;;;;-5.07;63.56;98215.22;5067951;28;20032;-64
2022/01/08 04:43:28;;;;;;;46.17;21.60;;;;;;;-5.01;63.56;98224.28;5068850;28;20028;-64
2022/01/08 04:45:54;;;;;;;33.80;16.83;;;;;;;-4.96;63.21;98221.81;5072114;28;20023;-64
2022/01/08 04:48:20;;;;;;;27.10;12.40;;;;;;;-4.94;63.07;98220.63;5071710;28;20416;-64
2022/01/08 04:50:47;;;;;;;27.92;14.05;;;;;;;-4.97;63.61;98220.16;5074849;28;20035;-65
2022/01/08 04:53:12;;;;;;;25.83;12.07;;;;;;;-5.02;63.63;98218.13;5067589;28;20070;-64
2022/01/08 04:55:38;;;;;;;29.48;12.68;;;;;;;-5.03;63.93;98220.97;5070627;28;20028;-64
2022/01/08 04:58:05;;;;;;;23.25;11.32;;;;;;;-5.03;63.86;98226.31;5069268;28;20021;-65
2022/01/08 05:00:31;;;;;;;24.17;12.43;;;;;;;-5.02;64.37;98228.81;5070212;28;20025;-64
2022/01/08 05:02:57;;;;;;;24.38;10.48;;;;;;;-5.03;64.68;98234.34;5070117;28;20496;-65
2022/01/08 05:05:23;;;;;;;23.40;10.38;;;;;;;-5.04;64.34;98235.38;5070200;28;20063;-65
2022/01/08 05:07:48;;;;;;;18.92;9.30;;;;;;;-5.01;64.49;98241.16;5084735;28;20055;-64
2022/01/08 05:10:14;;;;;;;21.00;10.93;;;;;;;-4.99;64.69;98238.28;5110642;28;20036;-64
2022/01/08 05:12:39;;;;;;;22.52;12.10;;;;;;;-4.94;64.46;98246.53;5110271;28;20395;-65
2022/01/08 05:15:05;;;;;;;24.90;11.73;;;;;;;-4.93;65.11;98246.34;5110635;28;20023;-64
2022/01/08 05:17:35;;;;;;;26.15;11.65;;;;;;;-4.90;65.25;98239.75;5110455;28;20020;-65
2022/01/08 05:20:05;;;;;;;26.13;12.18;;;;;;;-4.88;65.38;98237.69;5110883;28;20093;-65
2022/01/08 05:22:48;;;;;;;28.45;13.15;;;;;;;-4.85;65.95;98217.72;5110624;28;20601;-64
2022/01/08 05:25:18;;;;;;;23.13;10.60;;;;;;;-4.85;65.53;98228.44;5110435;28;20027;-65
2022/01/08 05:27:44;;;;;;;24.65;9.85;;;;;;;-4.85;65.67;98223.06;5110564;28;20532;-65
2022/01/08 05:30:11;;;;;;;21.70;10.57;;;;;;;-4.83;66.11;98221.88;5094444;28;20020;-65
2022/01/08 05:32:37;;;;;;;24.58;11.13;;;;;;;-4.80;65.81;98225.97;5114303;28;20365;-65
2022/01/08 05:35:02;;;;;;;20.73;10.80;;;;;;;-4.75;66.24;98233.41;5113984;28;20310;-64
2022/01/08 05:37:28;;;;;;;25.35;11.57;;;;;;;-4.69;66.00;98246.00;5113964;28;20034;-64
2022/01/08 05:39:53;;;;;;;25.67;12.90;;;;;;;-4.64;65.87;98256.88;5095664;28;20109;-64
2022/01/08 05:42:19;;;;;;;38.47;17.85;;;;;;;-4.61;66.15;98248.44;5113978;28;20034;-64
2022/01/08 05:44:45;;;;;;;40.67;14.52;;;;;;;-4.56;66.11;98245.19;5113522;28;20522;-64
2022/01/08 05:47:10;;;;;;;48.30;16.02;;;;;;;-4.52;66.22;98249.91;5095640;28;20023;-65
2022/01/08 05:49:36;;;;;;;63.17;19.90;;;;;;;-4.47;65.95;98235.91;5113979;28;20019;-64
2022/01/08 05:52:02;;;;;;;34.35;14.00;;;;;;;-4.40;65.98;98234.06;5113968;28;20035;-65
2022/01/08 05:54:27;;;;;;;31.38;13.60;;;;;;;-4.35;65.83;98238.81;5113852;28;20032;-65
2022/01/08 05:56:53;;;;;;;34.38;14.60;;;;;;;-4.28;66.08;98241.50;5113796;28;20376;-64
2022/01/08 05:59:21;;;;;;;52.00;18.58;;;;;;;-4.24;66.38;98232.81;5113951;28;20027;-65
2022/01/08 06:01:46;;;;;;;44.65;18.15;;;;;;;-4.18;65.61;98234.69;5113429;28;20086;-64
2022/01/08 06:04:11;;;;;;;32.17;13.43;;;;;;;-4.12;65.83;98238.41;5113692;28;20638;-64
2022/01/08 06:06:39;;;;;;;20.85;11.60;;;;;;;-4.08;65.95;98234.28;5113423;28;20107;-64
2022/01/08 06:09:05;;;;;;;23.75;11.13;;;;;;;-4.05;65.60;98231.19;5113581;28;20116;-65
2022/01/08 06:11:30;;;;;;;23.00;11.07;;;;;;;-4.02;65.71;98240.66;5113350;28;20036;-64
2022/01/08 06:13:55;;;;;;;22.80;11.63;;;;;;;-4.03;65.32;98234.47;5113207;28;20059;-63
2022/01/08 06:16:21;;;;;;;24.70;11.82;;;;;;;-4.03;65.43;98230.97;5113327;28;20491;-64
2022/01/08 06:18:46;;;;;;;23.02;10.90;;;;;;;-3.99;65.54;98234.91;5113280;28;20058;-64
2022/01/08 06:21:12;;;;;;;21.83;12.13;;;;;;;-3.97;65.60;98243.56;5114898;27;20027;-64
2022/01/08 06:23:37;;;;;;;25.10;10.68;;;;;;;-3.96;65.28;98226.44;5112671;28;20068;-64
2022/01/08 06:26:04;;;;;;;22.08;10.85;;;;;;;-3.95;65.55;98236.13;5113449;28;20478;-63
2022/01/08 06:28:30;;;;;;;22.83;10.23;;;;;;;-3.92;65.19;98235.72;5095019;28;20032;-64
2022/01/08 06:30:56;;;;;;;22.90;10.73;;;;;;;-3.86;65.20;98225.19;5112743;28;20521;-64
2022/01/08 06:33:21;;;;;;;46.58;15.38;;;;;;;-3.84;65.06;98233.84;5112636;28;20102;-64
2022/01/08 06:35:48;;;;;;;41.78;14.57;;;;;;;-3.79;65.40;98226.84;5113229;28;20032;-63
2022/01/08 06:38:15;;;;;;;41.17;13.38;;;;;;;-3.70;64.98;98238.16;5112929;28;20039;-64
2022/01/08 06:40:40;;;;;;;107.43;24.98;;;;;;;-3.67;64.95;98235.06;5093675;28;20392;-65
2022/01/08 06:43:06;;;;;;;81.75;23.83;;;;;;;-3.64;64.66;98241.84;5112673;28;20031;-65
2022/01/08 06:45:31;;;;;;;43.38;16.70;;;;;;;-3.60;65.02;98245.75;5094067;28;20057;-64
2022/01/08 06:47:57;;;;;;;50.92;18.58;;;;;;;-3.55;64.85;98243.28;5112088;28;20028;-65
2022/01/08 06:50:22;;;;;;;49.83;18.30;;;;;;;-3.49;64.43;98249.66;5112845;28;20169;-65
2022/01/08 06:52:47;;;;;;;63.28;30.30;;;;;;;-3.41;64.86;98245.94;5112606;28;20028;-64
2022/01/08 06:55:13;;;;;;;51.92;31.52;;;;;;;-3.34;64.46;98233.31;5112127;28;20034;-64
2022/01/08 06:57:38;;;;;;;34.63;19.88;;;;;;;-3.30;64.26;98229.19;5094171;28;20106;-65
2022/01/08 07:00:05;;;;;;;39.50;22.35;;;;;;;-3.27;64.46;98226.09;5112151;28;20028;-65
2022/01/08 07:02:30;;;;;;;46.05;26.15;;;;;;;-3.23;64.30;98229.16;5111632;28;20042;-64
2022/01/08 07:04:56;;;;;;;65.13;22.60;;;;;;;-3.20;63.90;98231.41;5111916;28;20456;-64
2022/01/08 07:07:21;;;;;;;89.88;28.02;;;;;;;-3.14;64.30;98222.53;5111473;28;20031;-65
2022/01/08 07:09:47;;;;;;;43.50;17.95;;;;;;;-3.09;64.14;98227.22;5112046;28;20384;-65
2022/01/08 07:12:12;;;;;;;40.28;16.30;;;;;;;-3.09;63.73;98228.06;5111612;28;20070;-65
2022/01/08 07:14:38;;;;;;;46.15;19.88;;;;;;;-3.09;63.55;98224.56;5111714;28;20515;-65
2022/01/08 07:17:03;;;;;;;39.25;15.38;;;;;;;-3.07;63.92;98233.22;5093181;28;20548;-65
2022/01/08 07:19:29;;;;;;;36.45;18.05;;;;;;;-3.06;63.63;98226.81;5112210;28;20464;-65
2022/01/08 07:21:55;;;;;;;31.58;14.40;;;;;;;-3.05;63.58;98217.72;5111043;28;20031;-65
2022/01/08 07:24:20;;;;;;;35.20;14.85;;;;;;;-3.04;63.44;98214.81;5111788;28;20035;-64
2022/01/08 07:26:46;;;;;;;34.58;15.98;;;;;;;-3.01;63.44;98211.69;5111766;28;20091;-65
2022/01/08 07:29:11;;;;;;;34.90;13.10;;;;;;;-3.00;62.49;98213.34;5111879;28;20092;-65
2022/01/08 07:31:37;;;;;;;23.08;10.77;;;;;;;-2.97;62.90;98219.31;5111632;28;20024;-65
2022/01/08 07:34:02;;;;;;;25.35;11.00;;;;;;;-2.96;62.67;98216.44;5111970;28;20027;-65
2022/01/08 07:36:27;;;;;;;22.85;10.27;;;;;;;-2.94;62.54;98214.38;5112189;28;20431;-65
2022/01/08 07:38:53;;;;;;;18.67;8.60;;;;;;;-2.91;62.50;98213.09;5106730;28;20547;-64
2022/01/08 07:41:18;;;;;;;39.72;14.35;;;;;;;-2.86;61.54;98226.72;5092422;28;20031;-65
2022/01/08 07:43:44;;;;;;;38.40;17.67;;;;;;;-2.82;62.35;98221.72;5111103;28;20042;-66
2022/01/08 07:46:10;;;;;;;31.27;15.30;;;;;;;-2.77;62.42;98214.69;5111369;28;20023;-65
2022/01/08 07:48:35;;;;;;;26.08;12.98;;;;;;;-2.73;61.88;98218.59;5110900;28;20069;-65
2022/01/08 07:51:01;;;;;;;22.73;10.15;;;;;;;-2.65;62.29;98224.75;5110631;28;20968;-65
2022/01/08 07:53:26;;;;;;;29.55;14.45;;;;;;;-2.63;61.73;98223.47;5109997;28;20118;-64
2022/01/08 07:55:52;;;;;;;25.20;12.20;;;;;;;-2.57;62.01;98217.25;5092175;28;20023;-64
2022/01/08 07:58:20;;;;;;;24.42;9.77;;;;;;;-2.50;61.93;98225.25;5110858;28;20027;-64
2022/01/08 08:00:47;;;;;;;24.13;11.82;;;;;;;-2.42;61.94;98221.47;5092577;28;20055;-64
2022/01/08 08:03:13;;;;;;;25.42;11.30;;;;;;;-2.35;61.90;98213.38;5108359;28;20125;-64
2022/01/08 08:05:39;;;;;;;27.10;11.05;;;;;;;-2.30;60.96;98210.88;5109983;28;20502;-64
2022/01/08 08:08:04;;;;;;;24.30;11.02;;;;;;;-2.29;60.98;98205.25;5111105;28;20039;-64
2022/01/08 08:10:29;;;;;;;24.98;10.93;;;;;;;-2.27;61.04;98211.25;5111502;28;20456;-64
2022/01/08 08:12:56;;;;;;;21.30;9.20;;;;;;;-2.23;60.72;98208.91;5111515;28;20033;-64
2022/01/08 08:15:21;;;;;;;21.58;10.07;;;;;;;-2.20;60.92;98205.81;5111854;28;20038;-64
2022/01/08 08:17:47;;;;;;;24.98;10.38;;;;;;;-2.16;60.49;98209.69;5093637;28;20027;-64
2022/01/08 08:20:13;;;;;;;22.00;9.70;;;;;;;-2.14;60.51;98223.75;5111092;28;20043;-64
2022/01/08 08:22:39;;;;;;;22.45;9.00;;;;;;;-2.14;60.34;98218.38;5111643;28;20418;-64
2022/01/08 08:25:06;;;;;;;47.15;17.25;;;;;;;-2.12;60.32;98224.34;5111441;28;20024;-65
2022/01/08 08:27:31;;;;;;;28.98;12.23;;;;;;;-2.10;59.91;98224.94;5111084;28;20139;-64
2022/01/08 08:29:57;;;;;;;39.83;13.77;;;;;;;-2.10;59.93;98230.31;5112081;28;20023;-65
2022/01/08 08:32:22;;;;;;;35.83;13.50;;;;;;;-2.11;59.81;98227.88;5111064;28;20032;-65
2022/01/08 08:34:50;;;;;;;28.13;11.73;;;;;;;-2.12;60.04;98232.41;5092648;28;20028;-66
2022/01/08 08:37:16;;;;;;;51.15;17.98;;;;;;;-2.12;60.20;98224.34;5111462;28;20123;-68
2022/01/08 08:39:41;;;;;;;38.30;15.63;;;;;;;-2.04;60.38;98223.25;5111821;28;20061;-68
2022/01/08 08:42:07;;;;;;;58.92;20.05;;;;;;;-2.02;60.25;98242.66;5111404;28;20035;-68
2022/01/08 08:44:32;;;;;;;81.25;24.20;;;;;;;-2.00;59.92;98235.19;5091984;28;20114;-67
2022/01/08 08:46:58;;;;;;;39.20;14.35;;;;;;;-1.99;59.60;98231.47;5105686;28;20171;-67
2022/01/08 08:49:23;;;;;;;26.55;12.07;;;;;;;-1.99;59.75;98230.66;5105493;28;20020;-67
2022/01/08 08:51:49;;;;;;;33.10;12.98;;;;;;;-1.97;59.59;98223.19;5086115;28;20034;-66
2022/01/08 08:54:14;;;;;;;82.55;25.65;;;;;;;-1.95;59.59;98229.16;5103893;28;20055;-66
2022/01/08 08:56:42;;;;;;;111.32;33.75;;;;;;;-1.89;60.03;98228.28;5104972;28;20372;-65
2022/01/08 08:59:08;;;;;;;71.88;22.48;;;;;;;-1.82;59.67;98229.03;5105615;28;20115;-67
2022/01/08 09:01:33;;;;;;;37.03;15.05;;;;;;;-1.77;59.86;98227.53;5105148;28;20038;-66
2022/01/08 09:03:58;;;;;;;69.32;27.00;;;;;;;-1.71;59.89;98224.81;5103733;28;20086;-66
2022/01/08 09:06:26;;;;;;;60.45;22.77;;;;;;;-1.67;59.48;98225.19;5109183;28;20028;-67
2022/01/08 09:08:51;;;;;;;61.08;19.45;;;;;;;-1.61;59.53;98229.66;5108863;28;20064;-67
2022/01/08 09:11:17;;;;;;;60.53;20.95;;;;;;;-1.56;59.81;98234.38;5109460;28;20092;-67
2022/01/08 09:13:42;;;;;;;34.17;16.08;;;;;;;-1.47;59.65;98234.91;5108172;28;20550;-67
2022/01/08 09:16:08;;;;;;;23.48;11.00;;;;;;;-1.42;59.30;98232.34;5109079;28;20036;-67
2022/01/08 09:18:33;;;;;;;25.88;10.70;;;;;;;-1.38;58.95;98238.94;5109106;28;20590;-67
2022/01/08 09:20:59;;;;;;;24.70;11.82;;;;;;;-1.38;59.32;98236.25;5109718;28;20032;-66
2022/01/08 09:23:24;;;;;;;29.85;11.82;;;;;;;-1.35;58.94;98233.94;5089482;28;20491;-65
2022/01/08 09:25:50;;;;;;;23.67;10.52;;;;;;;-1.32;58.95;98229.97;5107004;28;20054;-66
2022/01/08 09:28:15;;;;;;;21.75;9.27;;;;;;;-1.29;58.03;98234.09;5109209;28;20392;-66
2022/01/08 09:30:41;;;;;;;21.45;9.63;;;;;;;-1.28;58.59;98228.47;5109479;28;20034;-66
2022/01/08 09:33:06;;;;;;;19.65;9.65;;;;;;;-1.23;58.42;98230.50;5108533;28;20031;-66
2022/01/08 09:35:32;;;;;;;25.60;9.73;;;;;;;-1.24;57.47;98231.56;5106568;28;20611;-66
2022/01/08 09:37:57;;;;;;;27.63;9.65;;;;;;;-1.25;58.10;98229.91;5107779;28;20574;-66
2022/01/08 09:40:23;;;;;;;23.60;11.18;;;;;;;-1.17;58.16;98228.78;5101708;27;20644;-66
2022/01/08 09:42:50;;;;;;;22.83;8.57;;;;;;;-1.08;57.58;98225.56;5106647;28;20099;-66
2022/01/08 09:45:15;;;;;;;23.13;9.57;;;;;;;-1.01;57.62;98212.00;5105094;28;20047;-65
2022/01/08 09:47:41;;;;;;;20.45;9.55;;;;;;;-0.93;57.65;98206.31;5106739;28;20048;-66
2022/01/08 09:50:07;;;;;;;25.10;10.65;;;;;;;-0.85;56.97;98207.88;5106883;28;20112;-64
2022/01/08 09:52:33;;;;;;;24.73;9.48;;;;;;;-0.83;57.21;98211.16;5106586;28;20036;-65
2022/01/08 09:54:59;;;;;;;25.13;10.52;;;;;;;-0.76;57.44;98208.38;5105932;28;20035;-64
2022/01/08 09:57:24;;;;;;;23.42;9.93;;;;;;;-0.76;57.25;98209.19;5108358;28;20106;-65
2022/01/08 09:59:50;;;;;;;48.25;18.02;;;;;;;-0.78;57.29;98211.28;5108166;28;20072;-65
2022/01/08 10:02:21;;;;;;;25.98;12.05;;;;;;;-0.73;57.43;98215.16;5108296;28;20067;-65
2022/01/08 23:41:41;;;;;;;104.78;38.38;;;;;;;-3.23;70.21;97548.72;5102089;27;20699;-67
2022/01/08 23:44:06;;;;;;;122.70;44.47;;;;;;;-3.11;70.47;97539.88;5101764;28;20107;-71
2022/01/08 23:46:31;;;;;;;88.72;36.85;;;;;;;-2.99;70.23;97543.41;5084571;28;20028;-68
2022/01/08 23:49:01;;;;;;;98.63;35.75;;;;;;;-2.87;70.59;97548.78;5100715;28;20080;-69
2022/01/08 23:51:27;;;;;;;84.93;33.75;;;;;;;-2.72;70.40;97545.66;5101352;28;20032;-77
2022/01/08 23:53:53;;;;;;;75.60;31.95;;;;;;;-2.55;70.37;97538.53;5096761;28;20043;-67
2022/01/08 23:56:18;;;;;;;65.13;28.70;;;;;;;-2.38;70.49;97534.31;5093784;28;20035;-67
2022/01/08 23:58:44;;;;;;;77.15;31.05;;;;;;;-2.25;70.20;97526.03;5094266;28;20032;-67
